Time;durP1;ratioP1;P1;durP2;ratioP2;P2;SDS_P1;SDS_P2;PMS_P1;PMS_P2;Temp;Humidity;BMP_temperature;BMP_pressure;BME280_temperature;BME280_humidity;BME280_pressure;Samples;Min_cycle;Max_cycle;Signal;HPM_P1;HPM_P2
2024/04/03 00:00:51;;;;;;;2.88;1.05;;;10.00;1.00;;;;;;4829897;29;20440;-78
2024/04/03 00:03:17;;;;;;;4.30;1.30;;;10.00;1.00;;;;;;4824604;29;20038;-77
2024/04/03 00:05:42;;;;;;;3.72;1.30;;;10.00;1.00;;;;;;4824934;29;20510;-78
2024/04/03 00:08:08;;;;;;;3.22;1.02;;;10.00;1.00;;;;;;4824539;29;20043;-76
2024/04/03 00:10:33;;;;;;;3.65;1.10;;;10.00;1.00;;;;;;4824677;29;20446;-80
2024/04/03 00:12:59;;;;;;;3.50;1.30;;;10.00;1.00;;;;;;4856286;29;20152;-78
2024/04/03 00:15:25;;;;;;;3.85;1.30;;;10.00;1.00;;;;;;4875196;29;20041;-79
2024/04/03 00:17:52;;;;;;;3.97;1.20;;;10.00;1.00;;;;;;4880000;29;20129;-77
2024/04/03 00:20:18;;;;;;;5.63;1.35;;;10.00;1.00;;;;;;4879097;29;20082;-77
2024/04/03 00:22:44;;;;;;;5.32;1.40;;;10.00;1.00;;;;;;4879988;29;20045;-77
2024/04/03 00:25:09;;;;;;;4.40;1.42;;;10.00;1.00;;;;;;4862360;29;20411;-77
2024/04/03 00:27:35;;;;;;;2.67;1.50;;;10.00;1.00;;;;;;4861075;29;20533;-78
2024/04/03 00:30:01;;;;;;;2.53;0.90;;;10.00;1.00;;;;;;4879187;29;20192;-78
2024/04/03 00:32:26;;;;;;;2.47;1.10;;;10.00;1.00;;;;;;4879821;29;20088;-78
2024/04/03 00:34:52;;;;;;;4.15;1.23;;;10.00;1.00;;;;;;4851977;29;20038;-78
2024/04/03 00:37:20;;;;;;;6.63;1.40;;;9.90;1.00;;;;;;4879414;29;20410;-76
2024/04/03 00:39:45;;;;;;;3.45;1.40;;;9.90;53.00;;;;;;4851902;29;20128;-76
2024/04/03 00:42:11;;;;;;;5.80;1.70;;;9.90;99.90;;;;;;4824063;29;20543;-76
2024/04/03 00:44:42;;;;;;;3.25;1.30;;;9.90;99.90;;;;;;4838007;29;20046;-76
2024/04/03 00:47:08;;;;;;;4.28;1.60;;;9.80;99.90;;;;;;4824327;29;20042;-76
2024/04/03 00:49:34;;;;;;;3.40;1.40;;;9.70;99.90;;;;;;4823933;29;20047;-76
2024/04/03 00:52:00;;;;;;;4.75;1.95;;;9.70;99.90;;;;;;4842034;29;20061;-76
2024/04/03 00:54:26;;;;;;;3.47;1.40;;;9.60;99.90;;;;;;4823835;29;20050;-76
2024/04/03 00:56:51;;;;;;;4.47;1.55;;;9.50;99.90;;;;;;4838158;29;20521;-76
2024/04/03 00:59:17;;;;;;;3.70;1.30;;;9.40;99.90;;;;;;4827818;29;20045;-76
2024/04/03 01:01:43;;;;;;;3.53;1.58;;;9.40;1.00;;;;;;4852464;29;20141;-76
2024/04/03 01:04:08;;;;;;;3.47;1.27;;;9.30;1.00;;;;;;4874768;29;20041;-76
2024/04/03 01:06:35;;;;;;;3.67;1.50;;;9.30;1.00;;;;;;4860272;29;20422;-76
2024/04/03 01:09:00;;;;;;;4.55;1.35;;;9.30;1.00;;;;;;4856048;29;20037;-77
2024/04/03 01:11:26;;;;;;;2.83;1.20;;;9.20;1.00;;;;;;4860166;29;20521;-76
2024/04/03 01:13:52;;;;;;;3.55;1.45;;;9.30;1.00;;;;;;4860026;29;20647;-76
2024/04/03 01:16:17;;;;;;;3.70;1.50;;;9.30;1.00;;;;;;4860309;29;20030;-76
2024/04/03 01:18:43;;;;;;;5.30;1.73;;;9.30;1.00;;;;;;4846867;29;20079;-76
2024/04/03 01:21:10;;;;;;;3.30;1.15;;;9.40;1.00;;;;;;4841525;29;20049;-76
2024/04/03 01:23:35;;;;;;;5.45;1.45;;;9.40;1.00;;;;;;4836648;29;20505;-76
2024/04/03 01:26:01;;;;;;;5.20;1.90;;;9.40;1.00;;;;;;4821980;29;20035;-78
2024/04/03 01:28:26;;;;;;;3.58;1.40;;;9.40;1.00;;;;;;4805048;29;20114;-79
2024/04/03 01:30:52;;;;;;;4.85;1.70;;;9.40;99.90;;;;;;4818214;29;20403;-79
2024/04/03 01:33:17;;;;;;;3.63;1.60;;;9.50;99.90;;;;;;4849650;29;20042;-78
2024/04/03 01:35:43;;;;;;;3.60;1.75;;;9.40;99.90;;;;;;4865050;29;20065;-79
2024/04/03 01:38:09;;;;;;;2.88;1.10;;;9.50;99.90;;;;;;4860468;29;20041;-79
2024/04/03 01:40:35;;;;;;;3.10;1.10;;;9.50;99.90;;;;;;4833584;29;20594;-79
2024/04/03 01:43:01;;;;;;;2.92;1.58;;;9.50;99.90;;;;;;4805125;29;20074;-79
2024/04/03 01:45:27;;;;;;;4.35;1.45;;;9.50;1.00;;;;;;4804970;29;20515;-78
2024/04/03 01:47:52;;;;;;;2.22;1.00;;;9.50;1.00;;;;;;4788089;29;20043;-79
2024/04/03 01:50:20;;;;;;;3.00;1.40;;;9.50;1.00;;;;;;4822881;29;20038;-79
2024/04/03 01:52:46;;;;;;;3.45;1.27;;;9.50;1.00;;;;;;4841057;29;20044;-79
2024/04/03 01:55:12;;;;;;;2.22;1.00;;;9.50;1.00;;;;;;4836275;29;20034;-79
2024/04/03 01:57:37;;;;;;;3.47;1.15;;;9.50;1.00;;;;;;4819633;29;20042;-79
2024/04/03 02:00:04;;;;;;;2.05;0.90;;;9.50;1.00;;;;;;4813761;29;20048;-80
2024/04/03 02:02:29;;;;;;;2.58;1.20;;;9.50;1.00;;;;;;4804070;29;20043;-81
2024/04/03 02:04:55;;;;;;;2.95;1.10;;;9.60;1.00;;;;;;4799866;29;20084;-80
2024/04/03 02:07:20;;;;;;;2.92;1.38;;;9.60;1.00;;;;;;4772890;30;20538;-79
2024/04/03 02:09:46;;;;;;;3.05;1.10;;;9.50;1.00;;;;;;4768440;30;20596;-79
2024/04/03 02:12:12;;;;;;;4.25;0.98;;;9.50;1.00;;;;;;4786436;30;20124;-79
2024/04/03 02:14:38;;;;;;;2.45;1.10;;;9.50;1.00;;;;;;4799659;29;20515;-80
2024/04/03 02:17:04;;;;;;;2.47;1.10;;;9.50;1.00;;;;;;4822551;29;20043;-80
2024/04/03 02:19:30;;;;;;;3.42;1.50;;;9.50;1.00;;;;;;4836344;29;20042;-79
2024/04/03 02:21:55;;;;;;;2.25;1.10;;;9.50;1.00;;;;;;4827019;29;20039;-79
2024/04/03 02:24:21;;;;;;;2.35;1.30;;;9.50;1.00;;;;;;4840528;29;20046;-79
2024/04/03 02:26:46;;;;;;;2.42;1.20;;;9.50;1.00;;;;;;4863910;29;20040;-79
2024/04/03 02:29:14;;;;;;;2.20;1.20;;;9.50;1.00;;;;;;4845357;29;20136;-79
2024/04/03 02:31:40;;;;;;;3.60;1.13;;;9.50;1.00;;;;;;4835629;29;20049;-78
2024/04/03 02:34:07;;;;;;;3.95;1.52;;;9.50;1.00;;;;;;4827091;29;20061;-79
2024/04/03 02:36:33;;;;;;;3.90;1.60;;;9.50;1.00;;;;;;4840489;29;20486;-78
2024/04/03 02:38:58;;;;;;;2.70;1.50;;;9.50;19.70;;;;;;4840350;29;20255;-78
2024/04/03 02:41:24;;;;;;;1.55;0.88;;;9.50;15.50;;;;;;4840282;29;20136;-80
2024/04/03 02:43:49;;;;;;;2.40;1.00;;;9.50;1.00;;;;;;4807925;29;20043;-79
2024/04/03 02:46:15;;;;;;;3.55;1.27;;;9.50;7.90;;;;;;4780455;29;20046;-79
2024/04/03 02:48:40;;;;;;;2.85;1.15;;;9.50;1.00;;;;;;4821814;29;20069;-81
2024/04/03 02:51:09;;;;;;;3.15;1.30;;;9.50;1.00;;;;;;4822314;29;20042;-78
2024/04/03 02:53:35;;;;;;;3.47;1.40;;;9.50;12.20;;;;;;4794607;29;20540;-79
2024/04/03 02:56:01;;;;;;;3.90;1.50;;;9.50;33.60;;;;;;4799961;29;20039;-80
2024/04/03 02:58:27;;;;;;;2.72;1.40;;;9.50;46.90;;;;;;4803821;29;20515;-79
2024/04/03 03:01:07;;;;;;;3.60;1.50;;;9.50;68.40;;;;;;4790178;29;20058;-79
2024/04/03 03:03:34;;;;;;;3.03;1.50;;;9.50;99.90;;;;;;4837867;29;20034;-79
2024/04/03 03:06:01;;;;;;;2.53;1.67;;;9.40;99.90;;;;;;4822111;29;20491;-79
2024/04/03 03:08:28;;;;;;;3.17;1.50;;;9.40;99.90;;;;;;4803691;29;20042;-80
2024/04/03 03:10:54;;;;;;;3.85;1.77;;;9.40;99.90;;;;;;4806030;29;20057;-79
2024/04/03 03:13:21;;;;;;;3.83;1.98;;;9.40;99.90;;;;;;4804029;29;20035;-79
2024/04/03 03:15:58;;;;;;;3.78;1.55;;;9.40;99.90;;;;;;4854134;29;20136;-79
2024/04/03 03:18:30;;;;;;;2.25;1.30;;;9.30;99.90;;;;;;4840513;29;20038;-79
2024/04/03 03:20:56;;;;;;;3.72;1.48;;;9.30;99.90;;;;;;4840371;29;20098;-79
2024/04/03 03:23:22;;;;;;;3.65;1.45;;;9.30;99.90;;;;;;4840073;29;20070;-79
2024/04/03 03:25:52;;;;;;;2.05;1.10;;;9.30;99.90;;;;;;4803845;29;20057;-79
2024/04/03 03:28:21;;;;;;;3.45;1.30;;;9.40;99.90;;;;;;4803507;29;20491;-79
2024/04/03 03:30:48;;;;;;;2.90;1.40;;;9.40;99.90;;;;;;4767168;30;20067;-79
2024/04/03 03:33:14;;;;;;;4.07;1.33;;;9.30;99.90;;;;;;4767764;30;20050;-79
2024/04/03 03:35:40;;;;;;;3.25;1.40;;;9.30;99.90;;;;;;4785589;30;20108;-79
2024/04/03 03:38:05;;;;;;;3.80;1.50;;;9.30;99.90;;;;;;4820533;29;20039;-79
2024/04/03 03:40:32;;;;;;;2.67;1.20;;;9.30;99.90;;;;;;4820343;29;20487;-79
2024/04/03 03:42:58;;;;;;;2.88;1.50;;;9.30;99.90;;;;;;4820361;29;20031;-79
2024/04/03 03:45:23;;;;;;;2.42;1.33;;;9.40;99.90;;;;;;4822469;29;20046;-81
2024/04/03 03:47:49;;;;;;;4.07;1.60;;;9.40;99.90;;;;;;4821631;29;20035;-79
2024/04/03 03:53:02;;;;;;;4.88;1.45;;;9.40;99.90;;;;;;4838034;29;20374;-79
2024/04/03 03:55:31;;;;;;;5.03;2.10;;;9.40;99.90;;;;;;4804975;29;20139;-79
2024/04/03 03:57:57;;;;;;;2.83;1.60;;;9.40;99.90;;;;;;4806855;29;20530;-79
2024/04/03 04:00:24;;;;;;;3.03;1.73;;;9.40;99.90;;;;;;4806596;29;20039;-79
2024/04/03 04:02:50;;;;;;;4.10;1.52;;;9.40;99.90;;;;;;4824547;29;20515;-79
2024/04/03 04:05:18;;;;;;;3.70;1.80;;;9.40;99.90;;;;;;4808041;29;20403;-79
2024/04/03 04:07:43;;;;;;;3.25;1.60;;;9.40;99.90;;;;;;4805159;29;20039;-79
2024/04/03 04:10:09;;;;;;;2.22;1.30;;;9.40;99.90;;;;;;4823306;29;20103;-79
2024/04/03 04:12:35;;;;;;;2.75;1.10;;;9.30;99.90;;;;;;4788396;30;20449;-79
2024/04/03 04:15:00;;;;;;;2.75;1.40;;;9.30;99.90;;;;;;4839760;29;20041;-79
2024/04/03 04:17:26;;;;;;;4.07;1.60;;;9.40;99.90;;;;;;4824475;29;20483;-79
2024/04/03 04:19:51;;;;;;;3.80;1.52;;;9.40;99.90;;;;;;4788209;30;20039;-79
2024/04/03 04:22:17;;;;;;;2.75;1.40;;;9.40;99.90;;;;;;4806233;29;20611;-79
2024/04/03 04:24:45;;;;;;;2.60;1.52;;;9.40;99.90;;;;;;4788194;30;20539;-79
2024/04/03 04:27:11;;;;;;;3.22;1.70;;;9.40;99.90;;;;;;4816614;29;20117;-79
2024/04/03 04:29:37;;;;;;;3.65;1.40;;;9.40;99.90;;;;;;4823861;29;20524;-80
2024/04/03 04:32:09;;;;;;;2.65;1.27;;;9.40;99.90;;;;;;4806094;29;20035;-79
2024/04/03 04:34:39;;;;;;;4.55;1.50;;;9.30;99.90;;;;;;4820824;29;20042;-79
2024/04/03 04:37:04;;;;;;;2.40;1.30;;;9.40;99.90;;;;;;4842441;29;20038;-79
2024/04/03 04:39:30;;;;;;;3.25;1.50;;;9.40;99.90;;;;;;4842420;29;20049;-79
2024/04/03 04:41:55;;;;;;;3.53;1.33;;;9.40;99.90;;;;;;4842716;29;20042;-79
2024/04/03 04:44:21;;;;;;;4.60;1.67;;;9.30;99.90;;;;;;4827292;29;20038;-79
2024/04/03 04:46:51;;;;;;;3.28;1.60;;;9.40;99.90;;;;;;4854029;29;20545;-80
2024/04/03 04:49:17;;;;;;;6.00;1.85;;;9.30;99.90;;;;;;4860806;29;20117;-79
2024/04/03 04:51:43;;;;;;;3.05;1.80;;;9.30;99.90;;;;;;4876563;29;20053;-79
2024/04/03 04:54:11;;;;;;;4.63;1.85;;;9.40;99.90;;;;;;4878988;29;20425;-79
2024/04/03 04:56:39;;;;;;;3.78;1.92;;;9.30;99.90;;;;;;4844420;29;20046;-79
2024/04/03 04:59:05;;;;;;;3.85;1.58;;;9.40;99.90;;;;;;4823842;29;20107;-79
2024/04/03 05:01:33;;;;;;;5.85;2.13;;;9.40;99.90;;;;;;4821306;29;20099;-79
2024/04/03 05:04:00;;;;;;;3.72;1.55;;;9.50;99.90;;;;;;4821551;29;20125;-79
2024/04/03 05:06:26;;;;;;;3.03;1.40;;;9.50;99.90;;;;;;4787036;29;20093;-79
2024/04/03 05:08:52;;;;;;;3.70;1.55;;;9.50;99.90;;;;;;4787377;30;20605;-79
2024/04/03 05:11:18;;;;;;;4.00;1.70;;;9.50;99.90;;;;;;4787293;30;20039;-79
2024/04/03 05:13:45;;;;;;;3.97;1.70;;;9.50;99.90;;;;;;4781302;30;20101;-79
2024/04/03 05:16:12;;;;;;;5.43;1.75;;;9.50;99.90;;;;;;4766122;30;20559;-79
2024/04/03 05:18:39;;;;;;;5.30;1.85;;;9.50;99.90;;;;;;4751924;30;20397;-79
2024/04/03 05:21:05;;;;;;;6.05;2.10;;;9.60;99.90;;;;;;4751279;30;20040;-79
2024/04/03 05:23:31;;;;;;;6.07;1.98;;;9.60;99.90;;;;;;4769161;30;20577;-79
2024/04/03 05:26:00;;;;;;;5.43;2.15;;;9.60;99.90;;;;;;4754555;30;20040;-79
2024/04/03 05:28:26;;;;;;;5.70;1.88;;;9.60;99.90;;;;;;4780881;30;20613;-79
2024/04/03 05:30:53;;;;;;;4.25;1.60;;;9.60;97.50;;;;;;4783218;30;20059;-79
2024/04/03 05:33:21;;;;;;;4.88;1.98;;;9.60;92.80;;;;;;4783869;30;20429;-79
2024/04/03 05:35:57;;;;;;;4.65;2.17;;;9.70;99.90;;;;;;4801871;29;20543;-79
2024/04/03 05:38:23;;;;;;;5.78;2.20;;;9.70;94.80;;;;;;4839041;29;20506;-79
2024/04/03 05:40:51;;;;;;;4.55;2.08;;;9.70;72.80;;;;;;4857699;29;20048;-79
2024/04/03 05:43:17;;;;;;;4.28;2.25;;;9.80;49.50;;;;;;4826828;29;20133;-79
2024/04/03 05:45:43;;;;;;;4.65;2.08;;;9.80;1.00;;;;;;4839664;29;20045;-79
2024/04/03 05:48:09;;;;;;;5.22;2.03;;;9.80;1.00;;;;;;4824978;29;20043;-79
2024/04/03 05:50:35;;;;;;;3.55;2.25;;;9.80;1.00;;;;;;4838862;29;20455;-79
2024/04/03 05:53:00;;;;;;;6.65;2.15;;;9.80;1.00;;;;;;4822966;29;20395;-79
2024/04/03 05:55:26;;;;;;;5.00;2.20;;;9.80;15.00;;;;;;4807038;29;20051;-79
2024/04/03 05:57:52;;;;;;;7.63;2.70;;;9.70;31.90;;;;;;4826742;29;20038;-79
2024/04/03 06:00:17;;;;;;;5.25;2.33;;;9.70;9.80;;;;;;4838055;29;20038;-79
2024/04/03 06:02:43;;;;;;;6.25;2.55;;;9.80;1.00;;;;;;4841220;29;20058;-79
2024/04/03 06:05:08;;;;;;;11.50;3.00;;;9.80;1.00;;;;;;4807415;29;20373;-79
2024/04/03 06:07:34;;;;;;;5.85;2.40;;;9.80;1.00;;;;;;4804415;29;20480;-79
2024/04/03 06:10:03;;;;;;;6.65;2.97;;;9.80;1.00;;;;;;4804401;29;20098;-79
2024/04/03 06:12:31;;;;;;;5.10;2.28;;;9.90;1.00;;;;;;4804251;29;20080;-79
2024/04/03 06:14:57;;;;;;;5.32;2.40;;;9.90;1.00;;;;;;4804355;29;20065;-79
2024/04/03 06:17:23;;;;;;;5.50;2.30;;;9.90;1.00;;;;;;4790409;29;20516;-79
2024/04/03 06:19:48;;;;;;;7.43;2.78;;;9.90;99.90;;;;;;4785641;30;20039;-79
2024/04/03 06:22:14;;;;;;;5.97;2.35;;;9.90;99.90;;;;;;4786268;30;20063;-79
2024/04/03 06:24:40;;;;;;;7.18;2.45;;;9.90;99.90;;;;;;4784412;30;20496;-79
2024/04/03 06:27:06;;;;;;;7.22;2.75;;;10.00;99.90;;;;;;4772546;30;20516;-79
2024/04/03 06:29:32;;;;;;;7.32;2.53;;;10.00;99.90;;;;;;4781502;30;20043;-79
2024/04/03 06:31:58;;;;;;;5.68;2.70;;;9.90;99.90;;;;;;4786044;30;20043;-79
2024/04/03 06:34:24;;;;;;;8.82;3.10;;;10.00;99.90;;;;;;4785961;30;20179;-79
2024/04/03 06:36:51;;;;;;;7.80;2.65;;;9.90;99.90;;;;;;4774232;30;20123;-79
2024/04/03 06:39:16;;;;;;;6.95;2.55;;;10.00;99.90;;;;;;4800213;29;20042;-80
2024/04/03 06:41:42;;;;;;;6.55;2.55;;;10.00;99.90;;;;;;4818240;29;20030;-79
2024/04/03 06:44:08;;;;;;;10.55;2.65;;;10.10;99.90;;;;;;4817755;29;20037;-79
2024/04/03 06:46:33;;;;;;;6.97;2.00;;;10.20;99.90;;;;;;4840316;29;20042;-79
2024/04/03 06:48:59;;;;;;;6.07;2.40;;;10.20;99.90;;;;;;4827247;29;20442;-79
2024/04/03 06:51:25;;;;;;;4.97;2.33;;;10.20;99.90;;;;;;4808616;29;20108;-79
2024/04/03 06:53:50;;;;;;;6.97;2.53;;;10.10;99.90;;;;;;4799318;29;20035;-79
2024/04/03 06:56:16;;;;;;;7.03;2.50;;;10.10;99.90;;;;;;4803934;29;20043;-79
2024/04/03 06:58:43;;;;;;;6.07;2.22;;;10.10;99.90;;;;;;4786089;29;20073;-79
2024/04/03 07:01:10;;;;;;;6.82;2.45;;;10.20;99.90;;;;;;4777297;29;20535;-79
2024/04/03 07:03:36;;;;;;;4.82;2.08;;;10.20;99.90;;;;;;4785726;30;20036;-79
2024/04/03 07:06:02;;;;;;;5.30;2.17;;;10.10;99.90;;;;;;4785810;29;20050;-79
2024/04/03 07:08:27;;;;;;;5.10;2.17;;;10.10;99.90;;;;;;4785744;30;20035;-79
2024/04/03 07:10:54;;;;;;;6.43;2.35;;;10.20;99.90;;;;;;4806937;29;20053;-80
2024/04/03 07:13:21;;;;;;;5.70;2.20;;;10.10;99.90;;;;;;4844786;29;20474;-79
2024/04/03 07:15:47;;;;;;;5.47;2.67;;;10.20;99.90;;;;;;4858540;29;20426;-79
2024/04/03 07:18:13;;;;;;;4.40;2.53;;;10.20;99.90;;;;;;4808115;29;20039;-79
2024/04/03 07:20:40;;;;;;;7.60;2.83;;;10.20;99.90;;;;;;4803724;29;20110;-79
2024/04/03 07:23:06;;;;;;;9.68;2.70;;;10.20;99.90;;;;;;4775937;29;20536;-79
2024/04/03 07:25:32;;;;;;;6.22;2.80;;;10.40;99.90;;;;;;4789814;29;20198;-79
2024/04/03 07:28:09;;;;;;;4.53;2.58;;;10.40;99.90;;;;;;4789661;29;20074;-79
2024/04/03 07:30:34;;;;;;;6.43;2.78;;;10.50;99.90;;;;;;4772109;30;20087;-79
2024/04/03 07:33:00;;;;;;;6.30;2.53;;;10.70;97.10;;;;;;4753440;30;20505;-79
2024/04/03 07:35:25;;;;;;;9.45;4.53;;;11.00;1.00;;;;;;4724519;30;20375;-79
2024/04/03 07:37:51;;;;;;;7.32;4.07;;;11.70;1.00;;;;;;4764738;30;20524;-79
2024/04/03 07:40:16;;;;;;;5.93;3.22;;;11.70;99.90;;;;;;4788987;30;20394;-79
2024/04/03 07:42:43;;;;;;;7.00;2.90;;;11.50;99.90;;;;;;4789127;30;20047;-80
2024/04/03 07:45:09;;;;;;;5.50;2.53;;;11.50;99.90;;;;;;4773859;30;20449;-80
2024/04/03 07:47:35;;;;;;;5.72;2.35;;;11.60;99.90;;;;;;4773895;30;20039;-79
2024/04/03 07:50:05;;;;;;;4.70;2.30;;;11.50;99.90;;;;;;4803742;29;20043;-79
2024/04/03 07:52:37;;;;;;;8.02;2.70;;;11.90;99.90;;;;;;4788728;30;20132;-80
2024/04/03 07:55:09;;;;;;;4.90;2.35;;;12.30;99.90;;;;;;4820584;29;20387;-79
2024/04/03 07:57:37;;;;;;;7.82;2.30;;;13.50;1.00;;;;;;4808267;29;20061;-80
2024/04/03 08:00:08;;;;;;;6.60;2.80;;;13.70;1.00;;;;;;4791243;29;20055;-80
2024/04/03 08:02:40;;;;;;;4.85;2.30;;;13.80;99.90;;;;;;4824774;29;20069;-80
2024/04/03 08:05:12;;;;;;;3.83;2.50;;;13.40;99.90;;;;;;4806917;29;20045;-80
2024/04/03 08:07:39;;;;;;;5.57;2.42;;;13.00;99.90;;;;;;4806730;29;20514;-80
2024/04/03 08:10:08;;;;;;;4.82;2.30;;;12.80;99.90;;;;;;4770736;30;20098;-80
2024/04/03 08:12:35;;;;;;;4.60;2.40;;;12.40;99.90;;;;;;4735244;30;20045;-80
2024/04/03 08:15:01;;;;;;;6.10;2.42;;;12.30;99.90;;;;;;4771450;29;20130;-81
2024/04/03 08:17:27;;;;;;;5.20;2.67;;;12.60;99.90;;;;;;4788323;29;20291;-81
2024/04/03 08:19:54;;;;;;;6.72;2.25;;;12.90;99.90;;;;;;4770459;30;20046;-79
2024/04/03 08:22:20;;;;;;;4.68;2.38;;;13.10;99.90;;;;;;4770248;30;20122;-79
2024/04/03 08:24:47;;;;;;;8.63;4.57;;;13.20;99.90;;;;;;4788273;29;20134;-79
2024/04/03 08:27:13;;;;;;;5.65;2.50;;;13.00;99.90;;;;;;4788274;29;20108;-79
2024/04/03 08:29:42;;;;;;;4.70;2.33;;;12.40;99.90;;;;;;4771464;29;20508;-79
2024/04/03 08:32:10;;;;;;;4.70;2.45;;;12.10;99.90;;;;;;4752515;30;20048;-80
2024/04/03 08:34:37;;;;;;;6.45;2.47;;;12.10;99.90;;;;;;4753802;30;20040;-80
2024/04/03 08:37:05;;;;;;;9.02;5.05;;;12.00;99.90;;;;;;4737085;30;20044;-78
2024/04/03 08:39:33;;;;;;;8.68;3.28;;;12.00;99.90;;;;;;4782813;30;20492;-78
2024/04/03 08:42:00;;;;;;;5.15;2.67;;;11.90;99.90;;;;;;4751533;30;20075;-78
2024/04/03 08:44:34;;;;;;;4.63;2.50;;;11.90;99.90;;;;;;4734632;30;20090;-78
2024/04/03 08:47:00;;;;;;;6.70;2.42;;;11.90;99.90;;;;;;4743857;30;20040;-78
2024/04/03 08:49:30;;;;;;;9.15;2.78;;;12.00;99.90;;;;;;4769870;30;20063;-78
2024/04/03 08:52:05;;;;;;;6.38;2.80;;;11.90;99.90;;;;;;4769979;30;20050;-78
2024/04/03 08:54:31;;;;;;;5.03;2.55;;;11.80;1.00;;;;;;4769726;30;20035;-79
2024/04/03 08:57:00;;;;;;;8.05;3.03;;;11.50;99.90;;;;;;4787669;30;20047;-80
2024/04/03 08:59:26;;;;;;;5.80;3.00;;;11.30;1.00;;;;;;4787967;30;20439;-79
2024/04/03 09:01:52;;;;;;;6.43;3.55;;;11.20;99.90;;;;;;4787824;30;20476;-78
2024/04/03 09:04:20;;;;;;;5.38;3.25;;;11.00;1.00;;;;;;4822857;29;20031;-78
2024/04/03 09:06:47;;;;;;;7.38;4.32;;;11.00;99.90;;;;;;4823171;29;20046;-80
2024/04/03 09:09:19;;;;;;;6.20;3.67;;;10.80;99.90;;;;;;4823809;29;20045;-79
2024/04/03 09:12:08;;;;;;;8.25;3.92;;;10.80;99.90;;;;;;4806206;29;20045;-78
2024/04/03 09:14:34;;;;;;;7.15;4.47;;;11.00;99.90;;;;;;4823794;29;20042;-78
2024/04/03 09:17:05;;;;;;;6.47;3.38;;;11.30;99.90;;;;;;4841679;29;20122;-78
2024/04/03 09:19:32;;;;;;;6.30;3.65;;;11.70;99.90;;;;;;4839922;29;20038;-78
2024/04/03 09:21:59;;;;;;;5.93;3.08;;;12.00;1.00;;;;;;4841551;29;20490;-78
2024/04/03 09:24:25;;;;;;;4.95;2.83;;;11.90;1.00;;;;;;4841752;29;20549;-78
2024/04/03 09:26:52;;;;;;;5.78;2.58;;;11.70;99.90;;;;;;4841037;29;20039;-78
2024/04/03 09:29:18;;;;;;;5.28;2.80;;;11.60;99.90;;;;;;4805277;29;20077;-78
2024/04/03 09:31:47;;;;;;;5.13;2.58;;;11.70;99.90;;;;;;4823026;29;20062;-78
2024/04/03 09:34:14;;;;;;;4.35;2.20;;;11.60;99.90;;;;;;4824072;29;20039;-78
2024/04/03 09:36:40;;;;;;;5.00;2.50;;;11.50;99.90;;;;;;4824147;29;20041;-78
2024/04/03 09:39:09;;;;;;;5.85;3.20;;;11.40;99.90;;;;;;4842143;29;20038;-79
2024/04/03 09:41:35;;;;;;;5.03;2.50;;;11.20;1.00;;;;;;4859841;29;20320;-79
2024/04/03 09:44:04;;;;;;;5.30;2.33;;;10.90;99.90;;;;;;4789134;29;20038;-79
2024/04/03 09:46:46;;;;;;;3.72;2.20;;;10.90;1.00;;;;;;4786797;29;20099;-78
2024/04/03 09:49:13;;;;;;;7.18;3.80;;;11.00;1.00;;;;;;4787410;30;20035;-78
2024/04/03 09:51:39;;;;;;;4.72;2.72;;;10.90;1.00;;;;;;4822030;29;20103;-79
2024/04/03 09:54:06;;;;;;;5.57;2.63;;;10.90;1.00;;;;;;4793565;29;20076;-78
2024/04/03 09:56:33;;;;;;;6.25;2.75;;;11.00;1.00;;;;;;4786657;30;20050;-78
2024/04/03 09:59:02;;;;;;;8.75;3.63;;;11.00;1.00;;;;;;4786624;30;20043;-78
2024/04/03 10:01:30;;;;;;;7.28;3.60;;;11.20;37.70;;;;;;4769153;30;20130;-78
2024/04/03 10:04:05;;;;;;;6.45;3.55;;;11.60;99.90;;;;;;4817001;29;20038;-79
2024/04/03 10:06:42;;;;;;;5.57;3.40;;;12.60;99.90;;;;;;4786820;30;20039;-78
2024/04/03 10:09:17;;;;;;;8.88;4.05;;;13.30;72.60;;;;;;4804664;29;20047;-79
2024/04/03 10:11:57;;;;;;;7.00;4.32;;;13.50;99.90;;;;;;4804306;29;20142;-80
2024/04/03 10:14:43;;;;;;;7.07;3.63;;;13.70;99.90;;;;;;4793420;29;20376;-79
2024/04/03 10:17:15;;;;;;;6.95;3.35;;;14.20;99.90;;;;;;4786393;30;20039;-79
2024/04/03 10:19:42;;;;;;;7.32;3.03;;;14.60;1.00;;;;;;4786407;30;20039;-78
2024/04/03 10:22:10;;;;;;;6.53;2.45;;;16.70;99.90;;;;;;4750685;30;20072;-79
2024/04/03 10:24:37;;;;;;;4.82;2.33;;;17.00;39.50;;;;;;4763176;30;20036;-79
2024/04/03 10:27:03;;;;;;;5.20;2.30;;;17.50;1.00;;;;;;4768369;30;20040;-79
2024/04/03 10:29:29;;;;;;;4.25;1.70;;;19.00;99.90;;;;;;4773502;30;20047;-79
2024/04/03 10:31:58;;;;;;;3.63;1.55;;;18.00;99.90;;;;;;4790683;29;20523;-79
2024/04/03 10:34:24;;;;;;;2.92;1.40;;;18.00;99.90;;;;;;4791004;29;20041;-79
2024/04/03 10:36:49;;;;;;;4.47;1.63;;;17.00;99.90;;;;;;4818791;29;20039;-78
2024/04/03 10:39:15;;;;;;;4.45;1.50;;;16.20;99.90;;;;;;4818129;29;20043;-79
2024/04/03 10:41:42;;;;;;;5.45;1.80;;;15.10;99.90;;;;;;4786051;29;20550;-76
2024/04/03 10:44:11;;;;;;;2.85;1.10;;;14.00;1.00;;;;;;4786407;30;20055;-78
2024/04/03 10:46:37;;;;;;;2.67;1.17;;;13.10;99.90;;;;;;4786112;30;20047;-77
2024/04/03 10:49:02;;;;;;;2.88;1.02;;;12.40;1.00;;;;;;4804002;29;20092;-76
2024/04/03 10:51:28;;;;;;;2.65;0.93;;;12.00;1.00;;;;;;4768030;30;20520;-76
2024/04/03 10:53:55;;;;;;;3.38;1.20;;;11.50;1.00;;;;;;4768396;30;20032;-77
2024/04/03 10:56:25;;;;;;;2.50;0.90;;;11.30;1.60;;;;;;4800319;29;20046;-77
2024/04/03 10:58:50;;;;;;;2.15;1.00;;;11.70;88.10;;;;;;4818784;29;20046;-77
2024/04/03 11:01:16;;;;;;;5.15;1.08;;;12.10;1.00;;;;;;4822342;29;20042;-77
2024/04/03 11:03:42;;;;;;;3.08;1.20;;;12.40;99.90;;;;;;4804173;29;20031;-77
2024/04/03 11:06:12;;;;;;;1.58;1.00;;;13.10;99.90;;;;;;4810637;29;20433;-77
2024/04/03 11:08:39;;;;;;;1.83;0.93;;;12.80;96.90;;;;;;4793293;29;20434;-77
2024/04/03 11:11:06;;;;;;;2.15;1.00;;;12.10;99.90;;;;;;4807471;29;20112;-77
2024/04/03 11:13:32;;;;;;;2.00;0.85;;;11.90;99.90;;;;;;4823358;29;20271;-77
2024/04/03 11:15:58;;;;;;;4.00;1.10;;;11.80;99.90;;;;;;4825497;29;20137;-77
2024/04/03 11:18:25;;;;;;;2.28;1.20;;;11.60;1.00;;;;;;4843811;29;20044;-77
2024/04/03 11:20:50;;;;;;;1.92;1.30;;;11.60;99.90;;;;;;4795706;29;20082;-77
2024/04/03 11:23:16;;;;;;;3.20;1.50;;;11.20;99.90;;;;;;4840317;29;20197;-77
2024/04/03 11:25:41;;;;;;;3.20;1.70;;;10.80;99.90;;;;;;4877409;29;20062;-77
2024/04/03 11:28:07;;;;;;;3.42;1.77;;;10.60;99.90;;;;;;4895881;29;20571;-77
2024/04/03 11:30:37;;;;;;;4.07;2.28;;;10.60;99.90;;;;;;4861749;29;20060;-78
2024/04/03 11:33:03;;;;;;;5.05;1.80;;;10.60;1.00;;;;;;4880689;29;20037;-78
2024/04/03 11:35:29;;;;;;;3.90;2.60;;;10.70;99.90;;;;;;4850473;29;20040;-78
2024/04/03 11:37:54;;;;;;;4.72;2.20;;;11.00;99.90;;;;;;4876980;29;20132;-78
2024/04/03 11:40:20;;;;;;;4.25;2.20;;;11.00;99.90;;;;;;4880435;29;20037;-78
2024/04/03 11:42:46;;;;;;;4.10;2.35;;;11.10;99.90;;;;;;4865946;29;20132;-78
2024/04/03 11:45:11;;;;;;;4.03;2.30;;;10.80;1.00;;;;;;4861745;29;20479;-78
2024/04/03 11:47:37;;;;;;;4.88;2.83;;;10.70;1.00;;;;;;4857141;29;20041;-78
2024/04/03 11:50:04;;;;;;;6.15;3.22;;;10.70;63.90;;;;;;4880102;29;20048;-78
2024/04/03 11:52:30;;;;;;;3.75;2.80;;;10.70;99.90;;;;;;4833640;29;20579;-78
2024/04/03 11:54:56;;;;;;;5.72;2.80;;;10.70;99.90;;;;;;4822881;29;20034;-77
2024/04/03 11:57:22;;;;;;;3.65;2.53;;;11.30;99.90;;;;;;4806467;29;20038;-78
2024/04/03 11:59:49;;;;;;;5.28;2.75;;;12.40;1.00;;;;;;4810798;29;20053;-77
2024/04/03 12:02:14;;;;;;;4.00;2.78;;;13.50;99.90;;;;;;4806428;29;20498;-79
2024/04/03 12:04:41;;;;;;;4.00;2.55;;;13.70;1.00;;;;;;4824507;29;20074;-78
2024/04/03 12:07:07;;;;;;;4.68;2.50;;;14.10;1.00;;;;;;4806323;29;20045;-78
2024/04/03 12:09:32;;;;;;;3.90;2.17;;;14.20;99.90;;;;;;4806212;29;20492;-78
2024/04/03 12:11:59;;;;;;;2.63;1.90;;;13.80;74.60;;;;;;4801974;29;20038;-78
2024/04/03 12:14:25;;;;;;;3.92;2.20;;;13.10;99.90;;;;;;4779326;29;20035;-78
2024/04/03 12:16:55;;;;;;;4.20;2.20;;;12.50;99.90;;;;;;4787133;29;20047;-78
2024/04/03 12:19:26;;;;;;;4.28;2.00;;;12.30;99.90;;;;;;4760347;30;20048;-78
2024/04/03 12:21:55;;;;;;;3.13;1.75;;;12.10;99.90;;;;;;4776178;29;20125;-78
2024/04/03 12:24:21;;;;;;;3.28;1.80;;;12.00;99.90;;;;;;4809162;29;20107;-78
2024/04/03 12:26:47;;;;;;;2.47;1.58;;;11.90;99.90;;;;;;4806004;29;20096;-78
2024/04/03 12:29:13;;;;;;;3.83;1.80;;;11.80;99.90;;;;;;4821454;29;20038;-78
2024/04/03 12:31:40;;;;;;;2.75;1.55;;;11.60;99.90;;;;;;4824035;29;20511;-79
2024/04/03 12:34:07;;;;;;;3.70;1.70;;;11.70;99.90;;;;;;4794053;29;20491;-71
2024/04/03 12:36:33;;;;;;;2.30;1.50;;;12.20;99.90;;;;;;4788258;30;20073;-70
2024/04/03 12:38:58;;;;;;;3.88;1.50;;;12.70;99.90;;;;;;4806067;29;20598;-69
2024/04/03 12:41:24;;;;;;;2.60;1.35;;;13.20;1.00;;;;;;4836739;29;20046;-69
2024/04/03 12:43:49;;;;;;;2.20;1.40;;;12.70;1.00;;;;;;4842958;29;20049;-69
2024/04/03 12:46:15;;;;;;;3.10;2.10;;;12.80;99.90;;;;;;4842788;29;20038;-69
2024/04/03 12:48:41;;;;;;;2.90;1.67;;;12.60;99.90;;;;;;4842730;29;20072;-69
2024/04/03 12:51:07;;;;;;;4.03;2.15;;;12.70;99.90;;;;;;4872425;29;20118;-69
2024/04/03 12:53:33;;;;;;;3.42;1.83;;;13.00;99.90;;;;;;4918720;28;20055;-69
2024/04/03 12:56:00;;;;;;;3.53;1.92;;;13.10;99.90;;;;;;4974163;28;20119;-79